Smit Tyee — VG9196 — position and weather

sailwx.info

Track history (hours):
 
Tides and Currents Weather Stations Pressure Air Temp Water Temp Dewpoint Dewpoint Depression Visibility Wind Speed Wind Dir Waves Ship Positions

Smit Tyee

Last reported at 2018-Jun-22 22:09 UTC. Time now 2018-Jun-22 22:48 UTC.
Position N 49°12' W 122°40'.

Length 12 m; draft 2.1 m.

Type: Tug. MMSI: 316009842.

Date/timePositionNaut miles runAvg speedWind from/ knotsBaromVisibWave heightAir tempDewpointWater temp
2018-Jun-22 22:09N 49°12' W 122°40'2 4.8
2018-Jun-22 21:47N 49°12' W 122°42'2 6.6
2018-Jun-22 21:25N 49°13' W 122°46'3 6.6
2018-Jun-22 20:59N 49°13' W 122°51'3 6.1
2018-Jun-22 20:30N 49°12' W 122°55'1 1.7
2018-Jun-22 20:00N 49°11' W 122°56'1 1.4
2018-Jun-22 19:30N 49°12' W 122°56'1 1.4
2018-Jun-22 19:00N 49°11' W 122°56'1 1.8
2018-Jun-22 18:30N 49°12' W 122°57'0 0.1
2018-Jun-22 18:00N 49°12' W 122°57'0 0.3
2018-Jun-22 17:30N 49°12' W 122°56'0 0.3
2018-Jun-22 17:00N 49°12' W 122°57'0 0.1
2018-Jun-22 16:30N 49°12' W 122°57'0 0.0
2018-Jun-22 16:00N 49°12' W 122°57'4 8.7
2018-Jun-22 15:30N 49°13' W 122°50'510.4
2018-Jun-22 15:00N 49°12' W 122°42'2 3.1
2018-Jun-22 14:30N 49°12' W 122°40'0 0.0
2018-Jun-22 14:00N 49°12' W 122°40'0 0.0
2018-Jun-22 13:28N 49°12' W 122°40'0 0.0
2018-Jun-22 13:00N 49°12' W 122°40'0 0.0
2018-Jun-22 12:30N 49°12' W 122°40'3 5.2
2018-Jun-22 12:00N 49°12' W 122°36'1 0.4
2018-Jun-22 09:11N 49°11' W 122°35'2 4.7
2018-Jun-22 08:46N 49°13' W 122°37'1 5.0
2018-Jun-22 08:30N 49°12' W 122°39'2 4.9
2018-Jun-22 08:01N 49°12' W 122°43'4 5.5
2018-Jun-22 07:18N 49°13' W 122°49'2 5.8
2018-Jun-22 07:00N 49°13' W 122°51'3 5.7
2018-Jun-22 06:30N 49°12' W 122°55'3 5.5
2018-Jun-22 06:00N 49°11' W 122°59'3 6.1
2018-Jun-22 05:30N 49°12' W 123°03'3 6.6
2018-Jun-22 05:00N 49°12' W 123°08'1 1.9
2018-Jun-22 04:30N 49°12' W 123°09'0 0.5
2018-Jun-22 04:00N 49°12' W 123°09'3 6.2
2018-Jun-22 03:28N 49°14' W 123°14'4 2.9
2018-Jun-22 02:09N 49°16' W 123°19'1 4.8
2018-Jun-22 01:58N 49°16' W 123°17'3 5.1
2018-Jun-22 01:24N 49°14' W 123°14'2 5.6
2018-Jun-22 01:00N 49°13' W 123°11'2 4.1
2018-Jun-22 00:28N 49°12' W 123°08'2 5.1
2018-Jun-22 00:00N 49°12' W 123°04'0 0.0
2018-Jun-21 23:30N 49°12' W 123°04'0 0.0
2018-Jun-21 23:00N 49°12' W 123°04'0 0.0
2018-Jun-21 22:30N 49°12' W 123°04'0 0.0
2018-Jun-21 22:00N 49°12' W 123°04'0 0.0
2018-Jun-21 21:30N 49°12' W 123°04'0 0.0
2018-Jun-21 21:00N 49°12' W 123°04'0 0.0
2018-Jun-21 20:30N 49°12' W 123°04'0 0.0
2018-Jun-21 20:00N 49°12' W 123°04'0 0.0
2018-Jun-21 19:30N 49°12' W 123°04'0 0.0
2018-Jun-21 19:00N 49°12' W 123°04'0 0.0
2018-Jun-21 18:30N 49°12' W 123°04'0 0.0
2018-Jun-21 18:00N 49°12' W 123°04'0 0.0
2018-Jun-21 17:30N 49°12' W 123°04'0 0.0
2018-Jun-21 16:59N 49°12' W 123°04'0 0.0
2018-Jun-21 16:30N 49°12' W 123°04'0 0.0
2018-Jun-21 16:00N 49°12' W 123°04'0 0.0
2018-Jun-21 15:30N 49°12' W 123°04'0 0.0
2018-Jun-21 14:59N 49°12' W 123°04'0 0.0
2018-Jun-21 14:28N 49°12' W 123°04'0 0.0
2018-Jun-21 14:00N 49°12' W 123°04'0 0.0
2018-Jun-21 13:30N 49°12' W 123°04'0 0.0
2018-Jun-21 13:00N 49°12' W 123°04'0 0.0
2018-Jun-21 12:30N 49°12' W 123°04'0 0.0
2018-Jun-21 11:59N 49°12' W 123°04'0 0.0
2018-Jun-21 11:30N 49°12' W 123°04'0 0.0
2018-Jun-21 11:00N 49°12' W 123°04'0 0.0
2018-Jun-21 10:29N 49°12' W 123°04'0 0.0
2018-Jun-21 10:00N 49°12' W 123°04'0 0.0
2018-Jun-21 09:30N 49°12' W 123°04'0 0.0
2018-Jun-21 09:00N 49°12' W 123°04'0 0.0
2018-Jun-21 08:29N 49°12' W 123°04'0 0.0
2018-Jun-21 07:59N 49°12' W 123°04'0 0.0
2018-Jun-21 07:30N 49°12' W 123°04'0 0.0
2018-Jun-21 06:59N 49°12' W 123°04'0 0.0
2018-Jun-21 06:30N 49°12' W 123°04'0 0.0
2018-Jun-21 06:00N 49°12' W 123°04'0 0.0
2018-Jun-21 05:29N 49°12' W 123°04'0 0.0
2018-Jun-21 05:00N 49°12' W 123°04'0 0.0
2018-Jun-21 04:30N 49°12' W 123°04'0 0.0
2018-Jun-21 03:59N 49°12' W 123°04'0 0.0
2018-Jun-21 03:30N 49°12' W 123°04'0 0.0
2018-Jun-21 03:00N 49°12' W 123°04'0 0.0
2018-Jun-21 02:25N 49°12' W 123°04'0 0.0
2018-Jun-21 01:57N 49°12' W 123°04'0 0.0
2018-Jun-21 01:30N 49°12' W 123°04'0 0.0
2018-Jun-21 01:00N 49°12' W 123°04'0 0.0
2018-Jun-21 00:30N 49°12' W 123°04'0 0.0
2018-Jun-20 23:57N 49°12' W 123°04'0 0.0
2018-Jun-20 23:29N 49°12' W 123°04'0 0.0
2018-Jun-20 22:59N 49°12' W 123°04'0 0.0
2018-Jun-20 22:30N 49°12' W 123°04'0 0.0
2018-Jun-20 22:00N 49°12' W 123°04'0 0.0
2018-Jun-20 21:30N 49°12' W 123°04'0 0.0
2018-Jun-20 20:59N 49°12' W 123°04'0 0.0
2018-Jun-20 20:30N 49°12' W 123°04'0 0.0
2018-Jun-20 20:00N 49°12' W 123°04'0 0.0
2018-Jun-20 19:30N 49°12' W 123°04'0 0.0
2018-Jun-20 19:00N 49°12' W 123°04'0 0.0
2018-Jun-20 18:30N 49°12' W 123°04'0 0.0
2018-Jun-20 18:00N 49°12' W 123°04'0 0.0
2018-Jun-20 17:30N 49°12' W 123°04'0 0.0
2018-Jun-20 17:00N 49°12' W 123°04'0 0.0
2018-Jun-20 16:30N 49°12' W 123°04'0 0.0
2018-Jun-20 16:00N 49°12' W 123°04'0 0.0
2018-Jun-20 15:30N 49°12' W 123°04'0 0.0
2018-Jun-20 15:00N 49°12' W 123°04'0 0.0
2018-Jun-20 14:30N 49°12' W 123°04'0 0.0
2018-Jun-20 14:00N 49°12' W 123°04'0 0.0
2018-Jun-20 13:30N 49°12' W 123°04'0 0.0
2018-Jun-20 13:00N 49°12' W 123°04'0 0.0
2018-Jun-20 12:30N 49°12' W 123°04'0 0.0
2018-Jun-20 11:59N 49°12' W 123°04'0 0.0
2018-Jun-20 11:29N 49°12' W 123°04'0 0.0
2018-Jun-20 11:00N 49°12' W 123°04'0 0.0
2018-Jun-20 10:29N 49°12' W 123°04'0 0.0
2018-Jun-20 10:00N 49°12' W 123°04'0 0.1
2018-Jun-20 09:29N 49°12' W 123°04'3 6.0
2018-Jun-20 09:00N 49°11' W 122°60'2 4.3
2018-Jun-20 08:30N 49°12' W 122°57'0 0.0
2018-Jun-20 08:00N 49°12' W 122°57'0 0.3
2018-Jun-20 07:30N 49°12' W 122°57'0 0.2
2018-Jun-20 07:00N 49°12' W 122°57'2 4.2
2018-Jun-20 06:30N 49°11' W 122°60'4 7.1
2018-Jun-20 06:00N 49°12' W 123°05'1 1.3
2018-Jun-20 05:30N 49°12' W 123°04'2 4.0
2018-Jun-20 05:00N 49°12' W 123°07'3 7.0
2018-Jun-20 04:30N 49°13' W 123°12'0 0.8
2018-Jun-20 04:00N 49°13' W 123°11'3 5.2
2018-Jun-20 03:26N 49°12' W 123°07'2 4.6
2018-Jun-20 02:59N 49°12' W 123°04'0 0.2
2018-Jun-20 02:28N 49°12' W 123°04'0 0.0
2018-Jun-20 01:53N 49°12' W 123°04'0 0.0
2018-Jun-20 01:30N 49°12' W 123°04'0 0.0
2018-Jun-20 01:00N 49°12' W 123°04'0 0.0
2018-Jun-20 00:29N 49°12' W 123°04'0 0.0
2018-Jun-20 00:00N 49°12' W 123°04'0 0.0
2018-Jun-19 23:29N 49°12' W 123°04'0 0.0
2018-Jun-19 23:00N 49°12' W 123°04'0 0.0
2018-Jun-19 22:30N 49°12' W 123°04'0 0.0
2018-Jun-19 22:00N 49°12' W 123°04'0 0.0
2018-Jun-19 21:29N 49°12' W 123°04'0 0.0
2018-Jun-19 21:00N 49°12' W 123°04'0 0.0
2018-Jun-19 20:30N 49°12' W 123°04'0 0.0
2018-Jun-19 20:00N 49°12' W 123°04'2 3.7
2018-Jun-19 19:30N 49°12' W 123°07'2 4.5
2018-Jun-19 19:00N 49°13' W 123°10'2 5.0
2018-Jun-19 18:30N 49°14' W 123°13'17 5.5
2018-Jun-19 15:26N 49°28' W 123°28'3 0.6
2018-Jun-19 11:12N 49°30' W 123°30'0 0.9
2018-Jun-19 10:57N 49°30' W 123°29'3 4.4
2018-Jun-19 10:22N 49°28' W 123°28'10 5.4
2018-Jun-19 08:34N 49°19' W 123°22'1 6.7
2018-Jun-19 08:27N 49°18' W 123°21'3 6.5
2018-Jun-19 07:59N 49°16' W 123°18'4 7.0
2018-Jun-19 07:28N 49°14' W 123°14'3 6.4
2018-Jun-19 07:00N 49°13' W 123°09'3 5.4
2018-Jun-19 06:29N 49°12' W 123°05'4 1.1
2018-Jun-19 02:39N 49°13' W 123°11'1 4.4
2018-Jun-19 02:30N 49°13' W 123°12'1 0.6
2018-Jun-19 00:15N 49°14' W 123°14'1 3.2
2018-Jun-19 00:00N 49°14' W 123°13'6 0.4
2018-Jun-18 05:57N 49°12' W 123°04'0 0.0
2018-Jun-18 04:22N 49°12' W 123°04'0 0.0
2018-Jun-18 04:00N 49°12' W 123°04'0 0.0
2018-Jun-18 03:30N 49°12' W 123°04'0 0.0
2018-Jun-18 03:00N 49°12' W 123°04'0 0.0
2018-Jun-18 02:30N 49°12' W 123°04'0 0.0
2018-Jun-18 02:00N 49°12' W 123°04'0 0.0
2018-Jun-18 01:30N 49°12' W 123°04'0 0.0
2018-Jun-18 01:01N 49°12' W 123°04'0 0.0
2018-Jun-18 00:30N 49°12' W 123°04'0 0.0
2018-Jun-17 23:59N 49°12' W 123°04'0 0.0
2018-Jun-17 23:30N 49°12' W 123°04'0 0.0
2018-Jun-17 23:00N 49°12' W 123°04'0 0.0
2018-Jun-17 22:30N 49°12' W 123°04'0 0.0
2018-Jun-17 22:00N 49°12' W 123°04'0 0.0
2018-Jun-17 21:30N 49°12' W 123°04'0 0.0
2018-Jun-17 21:00N 49°12' W 123°04'0 0.0
2018-Jun-17 20:30N 49°12' W 123°04'0 0.0
2018-Jun-17 20:00N 49°12' W 123°04'0 0.0
2018-Jun-17 19:30N 49°12' W 123°04'0 0.0
2018-Jun-17 19:01N 49°12' W 123°04'0 0.0
2018-Jun-17 18:31N 49°12' W 123°04'0 0.0
2018-Jun-17 18:00N 49°12' W 123°04'0 0.0
2018-Jun-17 17:29N 49°12' W 123°04'0 0.0
2018-Jun-17 17:00N 49°12' W 123°04'0 0.0
2018-Jun-17 16:30N 49°12' W 123°04'0 0.0
2018-Jun-17 16:00N 49°12' W 123°04'0 0.0
2018-Jun-17 15:30N 49°12' W 123°04'0 0.0
2018-Jun-17 15:00N 49°12' W 123°04'0 0.0
2018-Jun-17 14:30N 49°12' W 123°04'0 0.0
2018-Jun-17 13:58N 49°12' W 123°04'0 0.0
2018-Jun-17 13:30N 49°12' W 123°04'0 0.0
2018-Jun-17 13:00N 49°12' W 123°04'0 0.0
2018-Jun-17 12:29N 49°12' W 123°04'0 0.0
2018-Jun-17 11:59N 49°12' W 123°04'0 0.0
2018-Jun-17 11:30N 49°12' W 123°04'0 0.0
2018-Jun-17 11:00N 49°12' W 123°04'0 0.0
2018-Jun-17 10:30N 49°12' W 123°04'0 0.0
2018-Jun-17 10:00N 49°12' W 123°04'0 0.0
2018-Jun-17 09:30N 49°12' W 123°04'0 0.0
2018-Jun-17 09:00N 49°12' W 123°04'0 0.0
2018-Jun-17 08:30N 49°12' W 123°04'0 0.0
2018-Jun-17 08:00N 49°12' W 123°04'0 0.0
2018-Jun-17 07:30N 49°12' W 123°04'0 0.0
2018-Jun-17 07:00N 49°12' W 123°04'0 0.0
2018-Jun-17 06:30N 49°12' W 123°04'0 0.0
2018-Jun-17 06:00N 49°12' W 123°04'0 0.0
2018-Jun-17 05:30N 49°12' W 123°04'0 0.0
2018-Jun-17 05:00N 49°12' W 123°04'0 0.0
2018-Jun-17 04:30N 49°12' W 123°04'0 0.0
2018-Jun-17 04:00N 49°12' W 123°04'0 0.0
2018-Jun-17 03:30N 49°12' W 123°04'0 0.0
2018-Jun-17 03:00N 49°12' W 123°04'0 0.0
2018-Jun-17 02:30N 49°12' W 123°04'0 0.0
2018-Jun-17 02:00N 49°12' W 123°04'0 0.0
2018-Jun-17 01:30N 49°12' W 123°04'0 0.0
2018-Jun-17 01:00N 49°12' W 123°04'0 0.0
2018-Jun-17 00:28N 49°12' W 123°04'0 0.0
2018-Jun-17 00:00N 49°12' W 123°04'0 0.0
2018-Jun-16 23:30N 49°12' W 123°04'0 0.0
2018-Jun-16 23:00N 49°12' W 123°04'0 0.0
2018-Jun-16 22:30N 49°12' W 123°04'0 0.0
2018-Jun-16 21:58N 49°12' W 123°04'0 0.0
2018-Jun-16 21:30N 49°12' W 123°04'0 0.0
2018-Jun-16 21:00N 49°12' W 123°04'0 0.0
2018-Jun-16 20:30N 49°12' W 123°04'0 0.0
2018-Jun-16 20:00N 49°12' W 123°04'0 0.0
2018-Jun-16 19:30N 49°12' W 123°04'0 0.0
2018-Jun-16 19:00N 49°12' W 123°04'0 0.0
2018-Jun-16 18:30N 49°12' W 123°04'0 0.0
2018-Jun-16 18:00N 49°12' W 123°04'0 0.0
2018-Jun-16 17:30N 49°12' W 123°04'0 0.0
2018-Jun-16 17:00N 49°12' W 123°04'0 0.0
2018-Jun-16 16:30N 49°12' W 123°04'0 0.0
2018-Jun-16 15:59N 49°12' W 123°04'0 0.0
2018-Jun-16 15:30N 49°12' W 123°04'0 0.0
2018-Jun-16 15:00N 49°12' W 123°04'0 0.0
2018-Jun-16 14:30N 49°12' W 123°04'0 0.0
2018-Jun-16 14:00N 49°12' W 123°04'0 0.0
2018-Jun-16 13:30N 49°12' W 123°04'0 0.0
2018-Jun-16 13:00N 49°12' W 123°04'0 0.0
2018-Jun-16 12:30N 49°12' W 123°04'0 0.0
2018-Jun-16 12:00N 49°12' W 123°04'0 0.0
2018-Jun-16 11:29N 49°12' W 123°04'0 0.0
2018-Jun-16 11:00N 49°12' W 123°04'0 0.0
2018-Jun-16 10:30N 49°12' W 123°04'0 0.0
2018-Jun-16 10:00N 49°12' W 123°04'0 0.0
2018-Jun-16 09:30N 49°12' W 123°04'0 0.0
2018-Jun-16 09:00N 49°12' W 123°04'0 0.0
2018-Jun-16 08:30N 49°12' W 123°04'0 0.0
2018-Jun-16 08:00N 49°12' W 123°04'0 0.0
2018-Jun-16 07:30N 49°12' W 123°04'0 0.0
2018-Jun-16 06:59N 49°12' W 123°04'0 0.0
2018-Jun-16 06:30N 49°12' W 123°04'0 0.0
2018-Jun-16 05:58N 49°12' W 123°04'0 0.0
2018-Jun-16 05:30N 49°12' W 123°04'0 0.0
2018-Jun-16 05:00N 49°12' W 123°04'0 0.0
2018-Jun-16 04:30N 49°12' W 123°04'0 0.0
2018-Jun-16 04:00N 49°12' W 123°04'0 0.0
2018-Jun-16 03:30N 49°12' W 123°04'0 0.0
2018-Jun-16 03:00N 49°12' W 123°04'0 0.0
2018-Jun-16 02:30N 49°12' W 123°04'0 0.0
2018-Jun-16 02:00N 49°12' W 123°04'0 0.0
2018-Jun-16 01:30N 49°12' W 123°04'0 0.0
2018-Jun-16 01:00N 49°12' W 123°04'0 0.0
2018-Jun-16 00:30N 49°12' W 123°04'0 0.0
2018-Jun-16 00:00N 49°12' W 123°04'0 0.0
2018-Jun-15 23:30N 49°12' W 123°04'1 1.4
2018-Jun-15 23:00N 49°12' W 123°05'0 0.2
2018-Jun-15 22:30N 49°12' W 123°05'3 5.3
2018-Jun-15 22:00N 49°12' W 123°01'3 5.9
2018-Jun-15 21:30N 49°12' W 122°57'0 0.3
2018-Jun-15 21:00N 49°12' W 122°57'0 0.2
2018-Jun-15 20:30N 49°12' W 122°57'0 0.1
2018-Jun-15 20:00N 49°12' W 122°57'0 0.1
2018-Jun-15 19:30N 49°12' W 122°57'0 0.2
2018-Jun-15 19:00N 49°12' W 122°57'0 0.1
2018-Jun-15 18:30N 49°12' W 122°56'0 0.0
2018-Jun-15 18:00N 49°12' W 122°56'0 0.0
2018-Jun-15 17:30N 49°12' W 122°56'0 0.0
2018-Jun-15 17:00N 49°12' W 122°56'0 0.0
2018-Jun-15 16:30N 49°12' W 122°56'0 0.0
2018-Jun-15 16:00N 49°12' W 122°56'0 0.0
2018-Jun-15 15:30N 49°12' W 122°56'0 0.0
2018-Jun-15 15:00N 49°12' W 122°56'0 0.0
2018-Jun-15 14:30N 49°12' W 122°56'0 0.0
2018-Jun-15 14:00N 49°12' W 122°56'0 0.0
2018-Jun-15 13:30N 49°12' W 122°56'0 0.0
2018-Jun-15 13:00N 49°12' W 122°56'0 0.0
2018-Jun-15 12:30N 49°12' W 122°56'0 0.0
2018-Jun-15 12:00N 49°12' W 122°56'0 0.0
2018-Jun-15 11:30N 49°12' W 122°56'0 0.0
2018-Jun-15 11:00N 49°12' W 122°56'0 0.0
2018-Jun-15 10:30N 49°12' W 122°56'0 0.0
2018-Jun-15 10:00N 49°12' W 122°56'0 0.0
2018-Jun-15 09:30N 49°12' W 122°56'0 0.0
2018-Jun-15 09:00N 49°12' W 122°56'0 0.0
2018-Jun-15 08:27N 49°12' W 122°56'0 0.0
2018-Jun-15 08:00N 49°12' W 122°56'0 0.0
2018-Jun-15 07:30N 49°12' W 122°56'0 0.0
2018-Jun-15 06:59N 49°12' W 122°56'0 0.0
2018-Jun-15 06:30N 49°12' W 122°56'0 0.0
2018-Jun-15 06:00N 49°12' W 122°56'0 0.0
2018-Jun-15 05:30N 49°12' W 122°56'0 0.0
2018-Jun-15 05:00N 49°12' W 122°56'0 0.0
2018-Jun-15 04:30N 49°12' W 122°56'0 0.0
2018-Jun-15 04:00N 49°12' W 122°56'0 0.0
2018-Jun-15 03:30N 49°12' W 122°56'0 0.0
2018-Jun-15 03:00N 49°12' W 122°56'0 0.0
2018-Jun-15 02:29N 49°12' W 122°56'1 2.4
2018-Jun-15 01:59N 49°12' W 122°55'2 4.9
2018-Jun-15 01:30N 49°10' W 122°56'3 5.7
2018-Jun-15 00:59N 49°09' W 123°01'3 5.7
2018-Jun-15 00:30N 49°08' W 123°04'3 5.7
2018-Jun-15 00:00N 49°06' W 123°08'5 5.5
2018-Jun-14 23:09N 49°07' W 123°15'2 5.7
2018-Jun-14 22:50N 49°06' W 123°18'9 1.6
2018-Jun-14 17:12N 49°00' W 123°08'0 0.0
2018-Jun-14 17:00N 49°00' W 123°08'0 0.0
2018-Jun-14 16:30N 49°00' W 123°08'0 0.0
2018-Jun-14 16:00N 49°00' W 123°08'0 0.0
2018-Jun-14 14:18N 49°00' W 123°08'0 0.4
2018-Jun-14 13:52N 49°00' W 123°08'0 0.1
2018-Jun-14 13:09N 49°00' W 123°08'1 2.3
2018-Jun-14 12:49N 49°00' W 123°09'5 2.5
2018-Jun-14 10:50N 49°02' W 123°16'1 2.7
2018-Jun-14 10:25N 49°03' W 123°17'2 3.7
2018-Jun-14 09:53N 49°05' W 123°19'5 5.0
2018-Jun-14 08:54N 49°08' W 123°13'3 7.3
2018-Jun-14 08:29N 49°07' W 123°08'4 7.5
2018-Jun-14 08:00N 49°08' W 123°03'4 8.3
2018-Jun-14 07:30N 49°09' W 122°57'3 5.3
2018-Jun-14 07:00N 49°12' W 122°56'0 0.7
2018-Jun-14 06:30N 49°12' W 122°56'0 0.0
2018-Jun-14 06:00N 49°12' W 122°56'0 0.0
2018-Jun-14 05:30N 49°12' W 122°56'0 0.0
2018-Jun-14 05:00N 49°12' W 122°56'0 0.0
2018-Jun-14 04:29N 49°12' W 122°56'0 0.0
2018-Jun-14 04:00N 49°12' W 122°56'0 0.0
2018-Jun-14 03:30N 49°12' W 122°56'0 0.0
2018-Jun-14 03:00N 49°12' W 122°56'0 0.0
2018-Jun-14 02:30N 49°12' W 122°56'0 0.0
2018-Jun-14 01:59N 49°12' W 122°56'0 0.0
2018-Jun-14 01:30N 49°12' W 122°56'0 0.0
2018-Jun-14 01:00N 49°12' W 122°56'0 0.0
2018-Jun-14 00:29N 49°12' W 122°56'0 0.0
2018-Jun-14 00:00N 49°12' W 122°56'0 0.0
2018-Jun-13 23:30N 49°12' W 122°56'0 0.0
2018-Jun-13 23:00N 49°12' W 122°56'0 0.0
2018-Jun-13 22:30N 49°12' W 122°56'0 0.0
2018-Jun-13 22:00N 49°12' W 122°56'0 0.0
2018-Jun-13 21:30N 49°12' W 122°56'0 0.0
2018-Jun-13 21:00N 49°12' W 122°56'0 0.0
2018-Jun-13 20:30N 49°12' W 122°56'0 0.0
2018-Jun-13 20:00N 49°12' W 122°56'0 0.0
2018-Jun-13 19:30N 49°12' W 122°56'0 0.0
2018-Jun-13 19:00N 49°12' W 122°56'0 0.0
2018-Jun-13 18:30N 49°12' W 122°56'0 0.0
2018-Jun-13 18:00N 49°12' W 122°56'0 0.0
2018-Jun-13 17:30N 49°12' W 122°56'0 0.0
2018-Jun-13 17:00N 49°12' W 122°56'0 0.0
2018-Jun-13 16:30N 49°12' W 122°56'0 0.0
2018-Jun-13 16:00N 49°12' W 122°56'0 0.0
2018-Jun-13 15:30N 49°12' W 122°56'0 0.0
2018-Jun-13 15:00N 49°12' W 122°56'0 0.0
2018-Jun-13 14:30N 49°12' W 122°56'0 0.0
2018-Jun-13 14:00N 49°12' W 122°56'0 0.0
2018-Jun-13 13:30N 49°12' W 122°56'0 0.0
2018-Jun-13 13:00N 49°12' W 122°56'0 0.0
2018-Jun-13 12:30N 49°12' W 122°56'0 0.0
2018-Jun-13 12:00N 49°12' W 122°56'0 0.0
2018-Jun-13 11:30N 49°12' W 122°56'0 0.0
2018-Jun-13 11:00N 49°12' W 122°56'0 0.0
2018-Jun-13 10:30N 49°12' W 122°56'0 0.0
2018-Jun-13 10:00N 49°12' W 122°56'0 0.0
2018-Jun-13 09:30N 49°12' W 122°56'0 0.0
2018-Jun-13 09:00N 49°12' W 122°56'0 0.0
2018-Jun-13 08:30N 49°12' W 122°56'0 0.0
2018-Jun-13 08:00N 49°12' W 122°56'0 0.0
2018-Jun-13 07:29N 49°12' W 122°56'0 0.0
2018-Jun-13 06:59N 49°12' W 122°56'0 0.0
2018-Jun-13 06:30N 49°12' W 122°56'0 0.0
2018-Jun-13 06:00N 49°12' W 122°56'0 0.0
2018-Jun-13 05:29N 49°12' W 122°56'3 5.3
2018-Jun-13 04:59N 49°12' W 123°00'3 6.6
2018-Jun-13 04:30N 49°12' W 123°05'2 3.5
2018-Jun-13 04:00N 49°12' W 123°08'3 6.3
2018-Jun-13 03:30N 49°13' W 123°12'0 0.9
2018-Jun-13 03:00N 49°14' W 123°13'3 5.1
2018-Jun-13 02:24N 49°12' W 123°09'2 5.1
2018-Jun-13 02:00N 49°12' W 123°06'1 1.1
2018-Jun-13 01:30N 49°12' W 123°05'1 1.8
2018-Jun-13 01:00N 49°12' W 123°04'0 0.0
2018-Jun-13 00:27N 49°12' W 123°04'0 0.0
2018-Jun-13 00:00N 49°12' W 123°04'0 0.7
2018-Jun-12 23:29N 49°12' W 123°04'3 5.4
2018-Jun-12 23:00N 49°12' W 123°08'2 3.3
2018-Jun-12 22:30N 49°13' W 123°10'  
Track history (hours):
 
Tides and Currents Weather Stations Pressure Air Temp Water Temp Dewpoint Dewpoint Depression Visibility Wind Speed Wind Dir Waves Ship Positions

Smit Tyee

Last reported at 2018-Jun-22 22:09 UTC. Time now 2018-Jun-22 22:48 UTC.
Position N 49°12' W 122°40'.

Length 12 m; draft 2.1 m.

Type: Tug. MMSI: 316009842.

Date/timePositionNaut miles runAvg speedWind from/ knotsBaromVisibWave heightAir tempDewpointWater temp
2018-Jun-22 22:09N 49°12' W 122°40'2 4.8
2018-Jun-22 21:47N 49°12' W 122°42'2 6.6
2018-Jun-22 21:25N 49°13' W 122°46'3 6.6
2018-Jun-22 20:59N 49°13' W 122°51'3 6.1
2018-Jun-22 20:30N 49°12' W 122°55'1 1.7
2018-Jun-22 20:00N 49°11' W 122°56'1 1.4
2018-Jun-22 19:30N 49°12' W 122°56'1 1.4
2018-Jun-22 19:00N 49°11' W 122°56'1 1.8
2018-Jun-22 18:30N 49°12' W 122°57'0 0.1
2018-Jun-22 18:00N 49°12' W 122°57'0 0.3
2018-Jun-22 17:30N 49°12' W 122°56'0 0.3
2018-Jun-22 17:00N 49°12' W 122°57'0 0.1
2018-Jun-22 16:30N 49°12' W 122°57'0 0.0
2018-Jun-22 16:00N 49°12' W 122°57'4 8.7
2018-Jun-22 15:30N 49°13' W 122°50'510.4
2018-Jun-22 15:00N 49°12' W 122°42'2 3.1
2018-Jun-22 14:30N 49°12' W 122°40'0 0.0
2018-Jun-22 14:00N 49°12' W 122°40'0 0.0
2018-Jun-22 13:28N 49°12' W 122°40'0 0.0
2018-Jun-22 13:00N 49°12' W 122°40'0 0.0
2018-Jun-22 12:30N 49°12' W 122°40'3 5.2
2018-Jun-22 12:00N 49°12' W 122°36'1 0.4
2018-Jun-22 09:11N 49°11' W 122°35'2 4.7
2018-Jun-22 08:46N 49°13' W 122°37'1 5.0
2018-Jun-22 08:30N 49°12' W 122°39'2 4.9
2018-Jun-22 08:01N 49°12' W 122°43'4 5.5
2018-Jun-22 07:18N 49°13' W 122°49'2 5.8
2018-Jun-22 07:00N 49°13' W 122°51'3 5.7
2018-Jun-22 06:30N 49°12' W 122°55'3 5.5
2018-Jun-22 06:00N 49°11' W 122°59'3 6.1
2018-Jun-22 05:30N 49°12' W 123°03'3 6.6
2018-Jun-22 05:00N 49°12' W 123°08'1 1.9
2018-Jun-22 04:30N 49°12' W 123°09'0 0.5
2018-Jun-22 04:00N 49°12' W 123°09'3 6.2
2018-Jun-22 03:28N 49°14' W 123°14'4 2.9
2018-Jun-22 02:09N 49°16' W 123°19'1 4.8
2018-Jun-22 01:58N 49°16' W 123°17'3 5.1
2018-Jun-22 01:24N 49°14' W 123°14'2 5.6
2018-Jun-22 01:00N 49°13' W 123°11'2 4.1
2018-Jun-22 00:28N 49°12' W 123°08'2 5.1
2018-Jun-22 00:00N 49°12' W 123°04'0 0.0
2018-Jun-21 23:30N 49°12' W 123°04'0 0.0
2018-Jun-21 23:00N 49°12' W 123°04'0 0.0
2018-Jun-21 22:30N 49°12' W 123°04'0 0.0
2018-Jun-21 22:00N 49°12' W 123°04'0 0.0
2018-Jun-21 21:30N 49°12' W 123°04'0 0.0
2018-Jun-21 21:00N 49°12' W 123°04'0 0.0
2018-Jun-21 20:30N 49°12' W 123°04'0 0.0
2018-Jun-21 20:00N 49°12' W 123°04'0 0.0
2018-Jun-21 19:30N 49°12' W 123°04'0 0.0
2018-Jun-21 19:00N 49°12' W 123°04'0 0.0
2018-Jun-21 18:30N 49°12' W 123°04'0 0.0
2018-Jun-21 18:00N 49°12' W 123°04'0 0.0
2018-Jun-21 17:30N 49°12' W 123°04'0 0.0
2018-Jun-21 16:59N 49°12' W 123°04'0 0.0
2018-Jun-21 16:30N 49°12' W 123°04'0 0.0
2018-Jun-21 16:00N 49°12' W 123°04'0 0.0
2018-Jun-21 15:30N 49°12' W 123°04'0 0.0
2018-Jun-21 14:59N 49°12' W 123°04'0 0.0
2018-Jun-21 14:28N 49°12' W 123°04'0 0.0
2018-Jun-21 14:00N 49°12' W 123°04'0 0.0
2018-Jun-21 13:30N 49°12' W 123°04'0 0.0
2018-Jun-21 13:00N 49°12' W 123°04'0 0.0
2018-Jun-21 12:30N 49°12' W 123°04'0 0.0
2018-Jun-21 11:59N 49°12' W 123°04'0 0.0
2018-Jun-21 11:30N 49°12' W 123°04'0 0.0
2018-Jun-21 11:00N 49°12' W 123°04'0 0.0
2018-Jun-21 10:29N 49°12' W 123°04'0 0.0
2018-Jun-21 10:00N 49°12' W 123°04'0 0.0
2018-Jun-21 09:30N 49°12' W 123°04'0 0.0
2018-Jun-21 09:00N 49°12' W 123°04'0 0.0
2018-Jun-21 08:29N 49°12' W 123°04'0 0.0
2018-Jun-21 07:59N 49°12' W 123°04'0 0.0
2018-Jun-21 07:30N 49°12' W 123°04'0 0.0
2018-Jun-21 06:59N 49°12' W 123°04'0 0.0
2018-Jun-21 06:30N 49°12' W 123°04'0 0.0
2018-Jun-21 06:00N 49°12' W 123°04'0 0.0
2018-Jun-21 05:29N 49°12' W 123°04'0 0.0
2018-Jun-21 05:00N 49°12' W 123°04'0 0.0
2018-Jun-21 04:30N 49°12' W 123°04'0 0.0
2018-Jun-21 03:59N 49°12' W 123°04'0 0.0
2018-Jun-21 03:30N 49°12' W 123°04'0 0.0
2018-Jun-21 03:00N 49°12' W 123°04'0 0.0
2018-Jun-21 02:25N 49°12' W 123°04'0 0.0
2018-Jun-21 01:57N 49°12' W 123°04'0 0.0
2018-Jun-21 01:30N 49°12' W 123°04'0 0.0
2018-Jun-21 01:00N 49°12' W 123°04'0 0.0
2018-Jun-21 00:30N 49°12' W 123°04'0 0.0
2018-Jun-20 23:57N 49°12' W 123°04'0 0.0
2018-Jun-20 23:29N 49°12' W 123°04'0 0.0
2018-Jun-20 22:59N 49°12' W 123°04'0 0.0
2018-Jun-20 22:30N 49°12' W 123°04'0 0.0
2018-Jun-20 22:00N 49°12' W 123°04'0 0.0
2018-Jun-20 21:30N 49°12' W 123°04'0 0.0
2018-Jun-20 20:59N 49°12' W 123°04'0 0.0
2018-Jun-20 20:30N 49°12' W 123°04'0 0.0
2018-Jun-20 20:00N 49°12' W 123°04'0 0.0
2018-Jun-20 19:30N 49°12' W 123°04'0 0.0
2018-Jun-20 19:00N 49°12' W 123°04'0 0.0
2018-Jun-20 18:30N 49°12' W 123°04'0 0.0
2018-Jun-20 18:00N 49°12' W 123°04'0 0.0
2018-Jun-20 17:30N 49°12' W 123°04'0 0.0
2018-Jun-20 17:00N 49°12' W 123°04'0 0.0
2018-Jun-20 16:30N 49°12' W 123°04'0 0.0
2018-Jun-20 16:00N 49°12' W 123°04'0 0.0
2018-Jun-20 15:30N 49°12' W 123°04'0 0.0
2018-Jun-20 15:00N 49°12' W 123°04'0 0.0
2018-Jun-20 14:30N 49°12' W 123°04'0 0.0
2018-Jun-20 14:00N 49°12' W 123°04'0 0.0
2018-Jun-20 13:30N 49°12' W 123°04'0 0.0
2018-Jun-20 13:00N 49°12' W 123°04'0 0.0
2018-Jun-20 12:30N 49°12' W 123°04'0 0.0
2018-Jun-20 11:59N 49°12' W 123°04'0 0.0
2018-Jun-20 11:29N 49°12' W 123°04'0 0.0
2018-Jun-20 11:00N 49°12' W 123°04'0 0.0
2018-Jun-20 10:29N 49°12' W 123°04'0 0.0
2018-Jun-20 10:00N 49°12' W 123°04'0 0.1
2018-Jun-20 09:29N 49°12' W 123°04'3 6.0
2018-Jun-20 09:00N 49°11' W 122°60'2 4.3
2018-Jun-20 08:30N 49°12' W 122°57'0 0.0
2018-Jun-20 08:00N 49°12' W 122°57'0 0.3
2018-Jun-20 07:30N 49°12' W 122°57'0 0.2
2018-Jun-20 07:00N 49°12' W 122°57'2 4.2
2018-Jun-20 06:30N 49°11' W 122°60'4 7.1
2018-Jun-20 06:00N 49°12' W 123°05'1 1.3
2018-Jun-20 05:30N 49°12' W 123°04'2 4.0
2018-Jun-20 05:00N 49°12' W 123°07'3 7.0
2018-Jun-20 04:30N 49°13' W 123°12'0 0.8
2018-Jun-20 04:00N 49°13' W 123°11'3 5.2
2018-Jun-20 03:26N 49°12' W 123°07'2 4.6
2018-Jun-20 02:59N 49°12' W 123°04'0 0.2
2018-Jun-20 02:28N 49°12' W 123°04'0 0.0
2018-Jun-20 01:53N 49°12' W 123°04'0 0.0
2018-Jun-20 01:30N 49°12' W 123°04'0 0.0
2018-Jun-20 01:00N 49°12' W 123°04'0 0.0
2018-Jun-20 00:29N 49°12' W 123°04'0 0.0
2018-Jun-20 00:00N 49°12' W 123°04'0 0.0
2018-Jun-19 23:29N 49°12' W 123°04'0 0.0
2018-Jun-19 23:00N 49°12' W 123°04'0 0.0
2018-Jun-19 22:30N 49°12' W 123°04'0 0.0
2018-Jun-19 22:00N 49°12' W 123°04'0 0.0
2018-Jun-19 21:29N 49°12' W 123°04'0 0.0
2018-Jun-19 21:00N 49°12' W 123°04'0 0.0
2018-Jun-19 20:30N 49°12' W 123°04'0 0.0
2018-Jun-19 20:00N 49°12' W 123°04'2 3.7
2018-Jun-19 19:30N 49°12' W 123°07'2 4.5
2018-Jun-19 19:00N 49°13' W 123°10'2 5.0
2018-Jun-19 18:30N 49°14' W 123°13'17 5.5
2018-Jun-19 15:26N 49°28' W 123°28'3 0.6
2018-Jun-19 11:12N 49°30' W 123°30'0 0.9
2018-Jun-19 10:57N 49°30' W 123°29'3 4.4
2018-Jun-19 10:22N 49°28' W 123°28'10 5.4
2018-Jun-19 08:34N 49°19' W 123°22'1 6.7
2018-Jun-19 08:27N 49°18' W 123°21'3 6.5
2018-Jun-19 07:59N 49°16' W 123°18'4 7.0
2018-Jun-19 07:28N 49°14' W 123°14'3 6.4
2018-Jun-19 07:00N 49°13' W 123°09'3 5.4
2018-Jun-19 06:29N 49°12' W 123°05'4 1.1
2018-Jun-19 02:39N 49°13' W 123°11'1 4.4
2018-Jun-19 02:30N 49°13' W 123°12'1 0.6
2018-Jun-19 00:15N 49°14' W 123°14'1 3.2
2018-Jun-19 00:00N 49°14' W 123°13'6 0.4
2018-Jun-18 05:57N 49°12' W 123°04'0 0.0
2018-Jun-18 04:22N 49°12' W 123°04'0 0.0
2018-Jun-18 04:00N 49°12' W 123°04'0 0.0
2018-Jun-18 03:30N 49°12' W 123°04'0 0.0
2018-Jun-18 03:00N 49°12' W 123°04'0 0.0
2018-Jun-18 02:30N 49°12' W 123°04'0 0.0
2018-Jun-18 02:00N 49°12' W 123°04'0 0.0
2018-Jun-18 01:30N 49°12' W 123°04'0 0.0
2018-Jun-18 01:01N 49°12' W 123°04'0 0.0
2018-Jun-18 00:30N 49°12' W 123°04'0 0.0
2018-Jun-17 23:59N 49°12' W 123°04'0 0.0
2018-Jun-17 23:30N 49°12' W 123°04'0 0.0
2018-Jun-17 23:00N 49°12' W 123°04'0 0.0
2018-Jun-17 22:30N 49°12' W 123°04'0 0.0
2018-Jun-17 22:00N 49°12' W 123°04'0 0.0
2018-Jun-17 21:30N 49°12' W 123°04'0 0.0
2018-Jun-17 21:00N 49°12' W 123°04'0 0.0
2018-Jun-17 20:30N 49°12' W 123°04'0 0.0
2018-Jun-17 20:00N 49°12' W 123°04'0 0.0
2018-Jun-17 19:30N 49°12' W 123°04'0 0.0
2018-Jun-17 19:01N 49°12' W 123°04'0 0.0
2018-Jun-17 18:31N 49°12' W 123°04'0 0.0
2018-Jun-17 18:00N 49°12' W 123°04'0 0.0
2018-Jun-17 17:29N 49°12' W 123°04'0 0.0
2018-Jun-17 17:00N 49°12' W 123°04'0 0.0
2018-Jun-17 16:30N 49°12' W 123°04'0 0.0
2018-Jun-17 16:00N 49°12' W 123°04'0 0.0
2018-Jun-17 15:30N 49°12' W 123°04'0 0.0
2018-Jun-17 15:00N 49°12' W 123°04'0 0.0
2018-Jun-17 14:30N 49°12' W 123°04'0 0.0
2018-Jun-17 13:58N 49°12' W 123°04'0 0.0
2018-Jun-17 13:30N 49°12' W 123°04'0 0.0
2018-Jun-17 13:00N 49°12' W 123°04'0 0.0
2018-Jun-17 12:29N 49°12' W 123°04'0 0.0
2018-Jun-17 11:59N 49°12' W 123°04'0 0.0
2018-Jun-17 11:30N 49°12' W 123°04'0 0.0
2018-Jun-17 11:00N 49°12' W 123°04'0 0.0
2018-Jun-17 10:30N 49°12' W 123°04'0 0.0
2018-Jun-17 10:00N 49°12' W 123°04'0 0.0
2018-Jun-17 09:30N 49°12' W 123°04'0 0.0
2018-Jun-17 09:00N 49°12' W 123°04'0 0.0
2018-Jun-17 08:30N 49°12' W 123°04'0 0.0
2018-Jun-17 08:00N 49°12' W 123°04'0 0.0
2018-Jun-17 07:30N 49°12' W 123°04'0 0.0
2018-Jun-17 07:00N 49°12' W 123°04'0 0.0
2018-Jun-17 06:30N 49°12' W 123°04'0 0.0
2018-Jun-17 06:00N 49°12' W 123°04'0 0.0
2018-Jun-17 05:30N 49°12' W 123°04'0 0.0
2018-Jun-17 05:00N 49°12' W 123°04'0 0.0
2018-Jun-17 04:30N 49°12' W 123°04'0 0.0
2018-Jun-17 04:00N 49°12' W 123°04'0 0.0
2018-Jun-17 03:30N 49°12' W 123°04'0 0.0
2018-Jun-17 03:00N 49°12' W 123°04'0 0.0
2018-Jun-17 02:30N 49°12' W 123°04'0 0.0
2018-Jun-17 02:00N 49°12' W 123°04'0 0.0
2018-Jun-17 01:30N 49°12' W 123°04'0 0.0
2018-Jun-17 01:00N 49°12' W 123°04'0 0.0
2018-Jun-17 00:28N 49°12' W 123°04'0 0.0
2018-Jun-17 00:00N 49°12' W 123°04'0 0.0
2018-Jun-16 23:30N 49°12' W 123°04'0 0.0
2018-Jun-16 23:00N 49°12' W 123°04'0 0.0
2018-Jun-16 22:30N 49°12' W 123°04'0 0.0
2018-Jun-16 21:58N 49°12' W 123°04'0 0.0
2018-Jun-16 21:30N 49°12' W 123°04'0 0.0
2018-Jun-16 21:00N 49°12' W 123°04'0 0.0
2018-Jun-16 20:30N 49°12' W 123°04'0 0.0
2018-Jun-16 20:00N 49°12' W 123°04'0 0.0
2018-Jun-16 19:30N 49°12' W 123°04'0 0.0
2018-Jun-16 19:00N 49°12' W 123°04'0 0.0
2018-Jun-16 18:30N 49°12' W 123°04'0 0.0
2018-Jun-16 18:00N 49°12' W 123°04'0 0.0
2018-Jun-16 17:30N 49°12' W 123°04'0 0.0
2018-Jun-16 17:00N 49°12' W 123°04'0 0.0
2018-Jun-16 16:30N 49°12' W 123°04'0 0.0
2018-Jun-16 15:59N 49°12' W 123°04'0 0.0
2018-Jun-16 15:30N 49°12' W 123°04'0 0.0
2018-Jun-16 15:00N 49°12' W 123°04'0 0.0
2018-Jun-16 14:30N 49°12' W 123°04'0 0.0
2018-Jun-16 14:00N 49°12' W 123°04'0 0.0
2018-Jun-16 13:30N 49°12' W 123°04'0 0.0
2018-Jun-16 13:00N 49°12' W 123°04'0 0.0
2018-Jun-16 12:30N 49°12' W 123°04'0 0.0
2018-Jun-16 12:00N 49°12' W 123°04'0 0.0
2018-Jun-16 11:29N 49°12' W 123°04'0 0.0
2018-Jun-16 11:00N 49°12' W 123°04'0 0.0
2018-Jun-16 10:30N 49°12' W 123°04'0 0.0
2018-Jun-16 10:00N 49°12' W 123°04'0 0.0
2018-Jun-16 09:30N 49°12' W 123°04'0 0.0
2018-Jun-16 09:00N 49°12' W 123°04'0 0.0
2018-Jun-16 08:30N 49°12' W 123°04'0 0.0
2018-Jun-16 08:00N 49°12' W 123°04'0 0.0
2018-Jun-16 07:30N 49°12' W 123°04'0 0.0
2018-Jun-16 06:59N 49°12' W 123°04'0 0.0
2018-Jun-16 06:30N 49°12' W 123°04'0 0.0
2018-Jun-16 05:58N 49°12' W 123°04'0 0.0
2018-Jun-16 05:30N 49°12' W 123°04'0 0.0
2018-Jun-16 05:00N 49°12' W 123°04'0 0.0
2018-Jun-16 04:30N 49°12' W 123°04'0 0.0
2018-Jun-16 04:00N 49°12' W 123°04'0 0.0
2018-Jun-16 03:30N 49°12' W 123°04'0 0.0
2018-Jun-16 03:00N 49°12' W 123°04'0 0.0
2018-Jun-16 02:30N 49°12' W 123°04'0 0.0
2018-Jun-16 02:00N 49°12' W 123°04'0 0.0
2018-Jun-16 01:30N 49°12' W 123°04'0 0.0
2018-Jun-16 01:00N 49°12' W 123°04'0 0.0
2018-Jun-16 00:30N 49°12' W 123°04'0 0.0
2018-Jun-16 00:00N 49°12' W 123°04'0 0.0
2018-Jun-15 23:30N 49°12' W 123°04'1 1.4
2018-Jun-15 23:00N 49°12' W 123°05'0 0.2
2018-Jun-15 22:30N 49°12' W 123°05'3 5.3
2018-Jun-15 22:00N 49°12' W 123°01'3 5.9
2018-Jun-15 21:30N 49°12' W 122°57'0 0.3
2018-Jun-15 21:00N 49°12' W 122°57'0 0.2
2018-Jun-15 20:30N 49°12' W 122°57'0 0.1
2018-Jun-15 20:00N 49°12' W 122°57'0 0.1
2018-Jun-15 19:30N 49°12' W 122°57'0 0.2
2018-Jun-15 19:00N 49°12' W 122°57'0 0.1
2018-Jun-15 18:30N 49°12' W 122°56'0 0.0
2018-Jun-15 18:00N 49°12' W 122°56'0 0.0
2018-Jun-15 17:30N 49°12' W 122°56'0 0.0
2018-Jun-15 17:00N 49°12' W 122°56'0 0.0
2018-Jun-15 16:30N 49°12' W 122°56'0 0.0
2018-Jun-15 16:00N 49°12' W 122°56'0 0.0
2018-Jun-15 15:30N 49°12' W 122°56'0 0.0
2018-Jun-15 15:00N 49°12' W 122°56'0 0.0
2018-Jun-15 14:30N 49°12' W 122°56'0 0.0
2018-Jun-15 14:00N 49°12' W 122°56'0 0.0
2018-Jun-15 13:30N 49°12' W 122°56'0 0.0
2018-Jun-15 13:00N 49°12' W 122°56'0 0.0
2018-Jun-15 12:30N 49°12' W 122°56'0 0.0
2018-Jun-15 12:00N 49°12' W 122°56'0 0.0
2018-Jun-15 11:30N 49°12' W 122°56'0 0.0
2018-Jun-15 11:00N 49°12' W 122°56'0 0.0
2018-Jun-15 10:30N 49°12' W 122°56'0 0.0
2018-Jun-15 10:00N 49°12' W 122°56'0 0.0
2018-Jun-15 09:30N 49°12' W 122°56'0 0.0
2018-Jun-15 09:00N 49°12' W 122°56'0 0.0
2018-Jun-15 08:27N 49°12' W 122°56'0 0.0
2018-Jun-15 08:00N 49°12' W 122°56'0 0.0
2018-Jun-15 07:30N 49°12' W 122°56'0 0.0
2018-Jun-15 06:59N 49°12' W 122°56'0 0.0
2018-Jun-15 06:30N 49°12' W 122°56'0 0.0
2018-Jun-15 06:00N 49°12' W 122°56'0 0.0
2018-Jun-15 05:30N 49°12' W 122°56'0 0.0
2018-Jun-15 05:00N 49°12' W 122°56'0 0.0
2018-Jun-15 04:30N 49°12' W 122°56'0 0.0
2018-Jun-15 04:00N 49°12' W 122°56'0 0.0
2018-Jun-15 03:30N 49°12' W 122°56'0 0.0
2018-Jun-15 03:00N 49°12' W 122°56'0 0.0
2018-Jun-15 02:29N 49°12' W 122°56'1 2.4
2018-Jun-15 01:59N 49°12' W 122°55'2 4.9
2018-Jun-15 01:30N 49°10' W 122°56'3 5.7
2018-Jun-15 00:59N 49°09' W 123°01'3 5.7
2018-Jun-15 00:30N 49°08' W 123°04'3 5.7
2018-Jun-15 00:00N 49°06' W 123°08'5 5.5
2018-Jun-14 23:09N 49°07' W 123°15'2 5.7
2018-Jun-14 22:50N 49°06' W 123°18'9 1.6
2018-Jun-14 17:12N 49°00' W 123°08'0 0.0
2018-Jun-14 17:00N 49°00' W 123°08'0 0.0
2018-Jun-14 16:30N 49°00' W 123°08'0 0.0
2018-Jun-14 16:00N 49°00' W 123°08'0 0.0
2018-Jun-14 14:18N 49°00' W 123°08'0 0.4
2018-Jun-14 13:52N 49°00' W 123°08'0 0.1
2018-Jun-14 13:09N 49°00' W 123°08'1 2.3
2018-Jun-14 12:49N 49°00' W 123°09'5 2.5
2018-Jun-14 10:50N 49°02' W 123°16'1 2.7
2018-Jun-14 10:25N 49°03' W 123°17'2 3.7
2018-Jun-14 09:53N 49°05' W 123°19'5 5.0
2018-Jun-14 08:54N 49°08' W 123°13'3 7.3
2018-Jun-14 08:29N 49°07' W 123°08'4 7.5
2018-Jun-14 08:00N 49°08' W 123°03'4 8.3
2018-Jun-14 07:30N 49°09' W 122°57'3 5.3
2018-Jun-14 07:00N 49°12' W 122°56'0 0.7
2018-Jun-14 06:30N 49°12' W 122°56'0 0.0
2018-Jun-14 06:00N 49°12' W 122°56'0 0.0
2018-Jun-14 05:30N 49°12' W 122°56'0 0.0
2018-Jun-14 05:00N 49°12' W 122°56'0 0.0
2018-Jun-14 04:29N 49°12' W 122°56'0 0.0
2018-Jun-14 04:00N 49°12' W 122°56'0 0.0
2018-Jun-14 03:30N 49°12' W 122°56'0 0.0
2018-Jun-14 03:00N 49°12' W 122°56'0 0.0
2018-Jun-14 02:30N 49°12' W 122°56'0 0.0
2018-Jun-14 01:59N 49°12' W 122°56'0 0.0
2018-Jun-14 01:30N 49°12' W 122°56'0 0.0
2018-Jun-14 01:00N 49°12' W 122°56'0 0.0
2018-Jun-14 00:29N 49°12' W 122°56'0 0.0
2018-Jun-14 00:00N 49°12' W 122°56'0 0.0
2018-Jun-13 23:30N 49°12' W 122°56'0 0.0
2018-Jun-13 23:00N 49°12' W 122°56'0 0.0
2018-Jun-13 22:30N 49°12' W 122°56'0 0.0
2018-Jun-13 22:00N 49°12' W 122°56'0 0.0
2018-Jun-13 21:30N 49°12' W 122°56'0 0.0
2018-Jun-13 21:00N 49°12' W 122°56'0 0.0
2018-Jun-13 20:30N 49°12' W 122°56'0 0.0
2018-Jun-13 20:00N 49°12' W 122°56'0 0.0
2018-Jun-13 19:30N 49°12' W 122°56'0 0.0
2018-Jun-13 19:00N 49°12' W 122°56'0 0.0
2018-Jun-13 18:30N 49°12' W 122°56'0 0.0
2018-Jun-13 18:00N 49°12' W 122°56'0 0.0
2018-Jun-13 17:30N 49°12' W 122°56'0 0.0
2018-Jun-13 17:00N 49°12' W 122°56'0 0.0
2018-Jun-13 16:30N 49°12' W 122°56'0 0.0
2018-Jun-13 16:00N 49°12' W 122°56'0 0.0
2018-Jun-13 15:30N 49°12' W 122°56'0 0.0
2018-Jun-13 15:00N 49°12' W 122°56'0 0.0
2018-Jun-13 14:30N 49°12' W 122°56'0 0.0
2018-Jun-13 14:00N 49°12' W 122°56'0 0.0
2018-Jun-13 13:30N 49°12' W 122°56'0 0.0
2018-Jun-13 13:00N 49°12' W 122°56'0 0.0
2018-Jun-13 12:30N 49°12' W 122°56'0 0.0
2018-Jun-13 12:00N 49°12' W 122°56'0 0.0
2018-Jun-13 11:30N 49°12' W 122°56'0 0.0
2018-Jun-13 11:00N 49°12' W 122°56'0 0.0
2018-Jun-13 10:30N 49°12' W 122°56'0 0.0
2018-Jun-13 10:00N 49°12' W 122°56'0 0.0
2018-Jun-13 09:30N 49°12' W 122°56'0 0.0
2018-Jun-13 09:00N 49°12' W 122°56'0 0.0
2018-Jun-13 08:30N 49°12' W 122°56'0 0.0
2018-Jun-13 08:00N 49°12' W 122°56'0 0.0
2018-Jun-13 07:29N 49°12' W 122°56'0 0.0
2018-Jun-13 06:59N 49°12' W 122°56'0 0.0
2018-Jun-13 06:30N 49°12' W 122°56'0 0.0
2018-Jun-13 06:00N 49°12' W 122°56'0 0.0
2018-Jun-13 05:29N 49°12' W 122°56'3 5.3
2018-Jun-13 04:59N 49°12' W 123°00'3 6.6
2018-Jun-13 04:30N 49°12' W 123°05'2 3.5
2018-Jun-13 04:00N 49°12' W 123°08'3 6.3
2018-Jun-13 03:30N 49°13' W 123°12'0 0.9
2018-Jun-13 03:00N 49°14' W 123°13'3 5.1
2018-Jun-13 02:24N 49°12' W 123°09'2 5.1
2018-Jun-13 02:00N 49°12' W 123°06'1 1.1
2018-Jun-13 01:30N 49°12' W 123°05'1 1.8
2018-Jun-13 01:00N 49°12' W 123°04'0 0.0
2018-Jun-13 00:27N 49°12' W 123°04'0 0.0
2018-Jun-13 00:00N 49°12' W 123°04'0 0.7
2018-Jun-12 23:29N 49°12' W 123°04'3 5.4
2018-Jun-12 23:00N 49°12' W 123°08'2 3.3
2018-Jun-12 22:30N 49°13' W 123°10'  

Dump ship's entire track history